sensor_id;sensor_type;location;lat;lon;timestamp;P1;durP1;ratioP1;P2;durP2;ratioP2
17915;SDS011;9083;49.156;8.982;2023-02-28T00:00:03;4.47;;;3.97;;
17915;SDS011;9083;49.156;8.982;2023-02-28T00:02:35;4.67;;;4.10;;
17915;SDS011;9083;49.156;8.982;2023-02-28T00:05:01;4.43;;;4.07;;
17915;SDS011;9083;49.156;8.982;2023-02-28T00:07:28;4.87;;;4.40;;
17915;SDS011;9083;49.156;8.982;2023-02-28T00:09:54;4.73;;;4.30;;
17915;SDS011;9083;49.156;8.982;2023-02-28T00:12:21;4.17;;;3.83;;
17915;SDS011;9083;49.156;8.982;2023-02-28T00:14:47;6.50;;;4.23;;
17915;SDS011;9083;49.156;8.982;2023-02-28T00:17:14;4.17;;;3.87;;
17915;SDS011;9083;49.156;8.982;2023-02-28T00:19:42;4.10;;;3.80;;
17915;SDS011;9083;49.156;8.982;2023-02-28T00:22:09;4.90;;;4.37;;
17915;SDS011;9083;49.156;8.982;2023-02-28T00:24:35;5.07;;;4.37;;
17915;SDS011;9083;49.156;8.982;2023-02-28T00:27:02;4.97;;;4.33;;
17915;SDS011;9083;49.156;8.982;2023-02-28T00:29:28;4.60;;;4.20;;
17915;SDS011;9083;49.156;8.982;2023-02-28T00:31:55;5.03;;;4.63;;
17915;SDS011;9083;49.156;8.982;2023-02-28T00:34:21;5.57;;;4.23;;
17915;SDS011;9083;49.156;8.982;2023-02-28T00:36:49;6.60;;;4.10;;
17915;SDS011;9083;49.156;8.982;2023-02-28T00:39:16;5.80;;;4.27;;
17915;SDS011;9083;49.156;8.982;2023-02-28T00:41:42;5.87;;;4.10;;
17915;SDS011;9083;49.156;8.982;2023-02-28T00:44:09;5.53;;;4.13;;
17915;SDS011;9083;49.156;8.982;2023-02-28T00:46:35;8.47;;;5.00;;
17915;SDS011;9083;49.156;8.982;2023-02-28T00:49:02;4.87;;;4.33;;
17915;SDS011;9083;49.156;8.982;2023-02-28T00:51:28;5.80;;;4.37;;
17915;SDS011;9083;49.156;8.982;2023-02-28T00:53:56;3.60;;;3.40;;
17915;SDS011;9083;49.156;8.982;2023-02-28T00:56:22;4.50;;;4.10;;
17915;SDS011;9083;49.156;8.982;2023-02-28T00:58:49;6.27;;;4.43;;
17915;SDS011;9083;49.156;8.982;2023-02-28T01:01:15;7.43;;;4.90;;
17915;SDS011;9083;49.156;8.982;2023-02-28T01:03:42;4.63;;;4.23;;
17915;SDS011;9083;49.156;8.982;2023-02-28T01:06:08;4.10;;;3.80;;
17915;SDS011;9083;49.156;8.982;2023-02-28T01:08:34;4.50;;;4.10;;
17915;SDS011;9083;49.156;8.982;2023-02-28T01:11:08;5.10;;;4.70;;
17915;SDS011;9083;49.156;8.982;2023-02-28T01:13:34;4.93;;;4.53;;
17915;SDS011;9083;49.156;8.982;2023-02-28T01:16:01;6.50;;;4.17;;
17915;SDS011;9083;49.156;8.982;2023-02-28T01:18:27;4.87;;;4.40;;
17915;SDS011;9083;49.156;8.982;2023-02-28T01:20:54;6.40;;;4.50;;
17915;SDS011;9083;49.156;8.982;2023-02-28T01:23:21;7.13;;;4.23;;
17915;SDS011;9083;49.156;8.982;2023-02-28T01:25:48;5.40;;;4.60;;
17915;SDS011;9083;49.156;8.982;2023-02-28T01:28:16;7.47;;;4.43;;
17915;SDS011;9083;49.156;8.982;2023-02-28T01:30:42;5.60;;;4.40;;
17915;SDS011;9083;49.156;8.982;2023-02-28T01:33:08;5.13;;;4.63;;
17915;SDS011;9083;49.156;8.982;2023-02-28T01:35:35;5.77;;;4.90;;
17915;SDS011;9083;49.156;8.982;2023-02-28T01:38:01;4.57;;;4.13;;
17915;SDS011;9083;49.156;8.982;2023-02-28T01:40:28;6.03;;;4.43;;
17915;SDS011;9083;49.156;8.982;2023-02-28T01:42:54;8.10;;;4.60;;
17915;SDS011;9083;49.156;8.982;2023-02-28T01:45:23;6.27;;;4.57;;
17915;SDS011;9083;49.156;8.982;2023-02-28T01:47:52;3.73;;;3.43;;
17915;SDS011;9083;49.156;8.982;2023-02-28T01:50:20;4.47;;;4.20;;
17915;SDS011;9083;49.156;8.982;2023-02-28T01:52:47;8.60;;;4.53;;
17915;SDS011;9083;49.156;8.982;2023-02-28T01:55:14;5.23;;;4.73;;
17915;SDS011;9083;49.156;8.982;2023-02-28T01:57:41;5.13;;;4.63;;
17915;SDS011;9083;49.156;8.982;2023-02-28T02:00:09;5.07;;;4.67;;
17915;SDS011;9083;49.156;8.982;2023-02-28T02:02:41;5.07;;;4.53;;
17915;SDS011;9083;49.156;8.982;2023-02-28T02:05:08;7.03;;;4.63;;
17915;SDS011;9083;49.156;8.982;2023-02-28T02:07:36;6.07;;;4.90;;
17915;SDS011;9083;49.156;8.982;2023-02-28T02:10:04;5.27;;;4.87;;
17915;SDS011;9083;49.156;8.982;2023-02-28T02:12:43;6.70;;;4.87;;
17915;SDS011;9083;49.156;8.982;2023-02-28T02:15:16;5.07;;;4.50;;
17915;SDS011;9083;49.156;8.982;2023-02-28T02:17:45;5.37;;;4.90;;
17915;SDS011;9083;49.156;8.982;2023-02-28T02:23:20;4.40;;;4.10;;
17915;SDS011;9083;49.156;8.982;2023-02-28T02:25:52;8.63;;;4.97;;
17915;SDS011;9083;49.156;8.982;2023-02-28T02:28:27;5.67;;;5.17;;
17915;SDS011;9083;49.156;8.982;2023-02-28T02:31:06;8.30;;;5.03;;
17915;SDS011;9083;49.156;8.982;2023-02-28T02:36:22;6.27;;;4.27;;
17915;SDS011;9083;49.156;8.982;2023-02-28T02:38:51;7.50;;;4.20;;
17915;SDS011;9083;49.156;8.982;2023-02-28T02:41:19;9.83;;;5.23;;
17915;SDS011;9083;49.156;8.982;2023-02-28T02:43:50;5.70;;;5.10;;
17915;SDS011;9083;49.156;8.982;2023-02-28T02:46:17;6.97;;;5.63;;
17915;SDS011;9083;49.156;8.982;2023-02-28T02:48:51;6.67;;;4.83;;
17915;SDS011;9083;49.156;8.982;2023-02-28T02:51:19;6.17;;;4.97;;
17915;SDS011;9083;49.156;8.982;2023-02-28T02:53:48;7.13;;;4.90;;
17915;SDS011;9083;49.156;8.982;2023-02-28T02:56:15;6.03;;;5.37;;
17915;SDS011;9083;49.156;8.982;2023-02-28T02:58:43;7.80;;;5.33;;
17915;SDS011;9083;49.156;8.982;2023-02-28T03:01:12;7.43;;;4.40;;
17915;SDS011;9083;49.156;8.982;2023-02-28T03:03:40;9.13;;;5.27;;
17915;SDS011;9083;49.156;8.982;2023-02-28T03:06:07;7.50;;;5.57;;
17915;SDS011;9083;49.156;8.982;2023-02-28T03:08:34;5.80;;;5.20;;
17915;SDS011;9083;49.156;8.982;2023-02-28T03:11:03;6.17;;;5.13;;
17915;SDS011;9083;49.156;8.982;2023-02-28T03:13:37;6.20;;;4.60;;
17915;SDS011;9083;49.156;8.982;2023-02-28T03:16:15;8.00;;;5.73;;
17915;SDS011;9083;49.156;8.982;2023-02-28T03:18:47;6.80;;;5.20;;
17915;SDS011;9083;49.156;8.982;2023-02-28T03:21:20;9.13;;;5.33;;
17915;SDS011;9083;49.156;8.982;2023-02-28T03:23:52;6.23;;;5.20;;
17915;SDS011;9083;49.156;8.982;2023-02-28T03:26:23;7.83;;;4.70;;
17915;SDS011;9083;49.156;8.982;2023-02-28T03:28:53;9.57;;;5.30;;
17915;SDS011;9083;49.156;8.982;2023-02-28T03:31:24;9.40;;;5.53;;
17915;SDS011;9083;49.156;8.982;2023-02-28T03:33:54;6.00;;;5.27;;
17915;SDS011;9083;49.156;8.982;2023-02-28T03:36:22;5.60;;;4.93;;
17915;SDS011;9083;49.156;8.982;2023-02-28T03:38:51;5.40;;;4.80;;
17915;SDS011;9083;49.156;8.982;2023-02-28T03:41:20;7.63;;;5.60;;
17915;SDS011;9083;49.156;8.982;2023-02-28T03:43:52;6.63;;;5.17;;
17915;SDS011;9083;49.156;8.982;2023-02-28T03:46:21;8.17;;;5.37;;
17915;SDS011;9083;49.156;8.982;2023-02-28T03:48:51;5.37;;;4.10;;
17915;SDS011;9083;49.156;8.982;2023-02-28T03:51:20;6.53;;;4.40;;
17915;SDS011;9083;49.156;8.982;2023-02-28T03:53:50;7.03;;;5.40;;
17915;SDS011;9083;49.156;8.982;2023-02-28T03:56:18;9.13;;;5.23;;
17915;SDS011;9083;49.156;8.982;2023-02-28T03:58:47;7.93;;;5.03;;
17915;SDS011;9083;49.156;8.982;2023-02-28T04:01:16;8.20;;;6.13;;
17915;SDS011;9083;49.156;8.982;2023-02-28T04:03:45;11.97;;;8.37;;
17915;SDS011;9083;49.156;8.982;2023-02-28T04:06:13;16.63;;;11.00;;
17915;SDS011;9083;49.156;8.982;2023-02-28T04:08:40;44.17;;;21.93;;
17915;SDS011;9083;49.156;8.982;2023-02-28T04:11:08;28.10;;;20.50;;
17915;SDS011;9083;49.156;8.982;2023-02-28T04:13:39;7.13;;;6.07;;
17915;SDS011;9083;49.156;8.982;2023-02-28T04:16:06;7.70;;;6.80;;
17915;SDS011;9083;49.156;8.982;2023-02-28T04:18:38;11.53;;;6.70;;
17915;SDS011;9083;49.156;8.982;2023-02-28T04:21:04;7.03;;;5.77;;
17915;SDS011;9083;49.156;8.982;2023-02-28T04:23:31;8.03;;;5.97;;
17915;SDS011;9083;49.156;8.982;2023-02-28T04:25:58;8.77;;;5.47;;
17915;SDS011;9083;49.156;8.982;2023-02-28T04:28:24;6.47;;;5.07;;
17915;SDS011;9083;49.156;8.982;2023-02-28T04:30:53;8.23;;;6.27;;
17915;SDS011;9083;49.156;8.982;2023-02-28T04:33:20;8.17;;;5.80;;
17915;SDS011;9083;49.156;8.982;2023-02-28T04:35:48;8.07;;;5.50;;
17915;SDS011;9083;49.156;8.982;2023-02-28T04:38:14;12.40;;;5.37;;
17915;SDS011;9083;49.156;8.982;2023-02-28T04:40:40;7.93;;;5.37;;
17915;SDS011;9083;49.156;8.982;2023-02-28T04:43:07;7.27;;;6.50;;
17915;SDS011;9083;49.156;8.982;2023-02-28T04:45:34;15.00;;;11.33;;
17915;SDS011;9083;49.156;8.982;2023-02-28T04:48:01;13.13;;;8.50;;
17915;SDS011;9083;49.156;8.982;2023-02-28T04:50:30;9.70;;;6.77;;
17915;SDS011;9083;49.156;8.982;2023-02-28T04:52:57;10.17;;;6.03;;
17915;SDS011;9083;49.156;8.982;2023-02-28T04:55:24;10.50;;;7.40;;
17915;SDS011;9083;49.156;8.982;2023-02-28T04:57:50;7.17;;;6.23;;
17915;SDS011;9083;49.156;8.982;2023-02-28T05:00:17;18.83;;;10.70;;
17915;SDS011;9083;49.156;8.982;2023-02-28T05:02:43;13.73;;;10.37;;
17915;SDS011;9083;49.156;8.982;2023-02-28T05:05:10;11.80;;;7.23;;
17915;SDS011;9083;49.156;8.982;2023-02-28T05:07:36;16.63;;;11.73;;
17915;SDS011;9083;49.156;8.982;2023-02-28T05:10:05;10.73;;;6.93;;
17915;SDS011;9083;49.156;8.982;2023-02-28T05:12:31;16.77;;;8.37;;
17915;SDS011;9083;49.156;8.982;2023-02-28T05:14:58;14.20;;;8.20;;
17915;SDS011;9083;49.156;8.982;2023-02-28T05:17:24;9.07;;;5.90;;
17915;SDS011;9083;49.156;8.982;2023-02-28T05:19:50;7.60;;;6.90;;
17915;SDS011;9083;49.156;8.982;2023-02-28T05:22:17;7.60;;;6.37;;
17915;SDS011;9083;49.156;8.982;2023-02-28T05:24:43;8.13;;;6.23;;
17915;SDS011;9083;49.156;8.982;2023-02-28T05:27:11;9.37;;;6.03;;
17915;SDS011;9083;49.156;8.982;2023-02-28T05:29:38;11.40;;;5.90;;
17915;SDS011;9083;49.156;8.982;2023-02-28T05:32:10;7.53;;;5.63;;
17915;SDS011;9083;49.156;8.982;2023-02-28T05:34:43;6.90;;;5.60;;
17915;SDS011;9083;49.156;8.982;2023-02-28T05:37:10;8.13;;;5.73;;
17915;SDS011;9083;49.156;8.982;2023-02-28T05:39:37;13.93;;;6.37;;
17915;SDS011;9083;49.156;8.982;2023-02-28T05:42:03;6.27;;;5.63;;
17915;SDS011;9083;49.156;8.982;2023-02-28T05:44:31;7.80;;;6.23;;
17915;SDS011;9083;49.156;8.982;2023-02-28T05:46:58;9.97;;;6.23;;
17915;SDS011;9083;49.156;8.982;2023-02-28T05:49:24;9.30;;;6.47;;
17915;SDS011;9083;49.156;8.982;2023-02-28T05:51:50;9.57;;;6.00;;
17915;SDS011;9083;49.156;8.982;2023-02-28T05:54:17;7.73;;;6.13;;
17915;SDS011;9083;49.156;8.982;2023-02-28T05:56:43;7.07;;;6.07;;
17915;SDS011;9083;49.156;8.982;2023-02-28T05:59:10;6.97;;;5.77;;
17915;SDS011;9083;49.156;8.982;2023-02-28T06:01:39;9.30;;;6.07;;
17915;SDS011;9083;49.156;8.982;2023-02-28T06:04:06;12.30;;;5.57;;
17915;SDS011;9083;49.156;8.982;2023-02-28T06:06:33;9.27;;;6.47;;
17915;SDS011;9083;49.156;8.982;2023-02-28T06:09:01;7.53;;;5.63;;
17915;SDS011;9083;49.156;8.982;2023-02-28T06:11:27;7.83;;;5.97;;
17915;SDS011;9083;49.156;8.982;2023-02-28T06:13:54;9.77;;;7.23;;
17915;SDS011;9083;49.156;8.982;2023-02-28T06:16:21;13.93;;;5.50;;
17915;SDS011;9083;49.156;8.982;2023-02-28T06:18:49;6.63;;;5.87;;
17915;SDS011;9083;49.156;8.982;2023-02-28T06:21:15;12.87;;;5.97;;
17915;SDS011;9083;49.156;8.982;2023-02-28T06:23:42;13.87;;;6.43;;
17915;SDS011;9083;49.156;8.982;2023-02-28T06:26:09;9.97;;;6.47;;
17915;SDS011;9083;49.156;8.982;2023-02-28T06:28:35;11.47;;;6.70;;
17915;SDS011;9083;49.156;8.982;2023-02-28T06:31:06;11.23;;;6.40;;
17915;SDS011;9083;49.156;8.982;2023-02-28T06:33:32;9.80;;;6.13;;
17915;SDS011;9083;49.156;8.982;2023-02-28T06:36:00;13.30;;;6.93;;
17915;SDS011;9083;49.156;8.982;2023-02-28T06:38:27;8.87;;;6.47;;
17915;SDS011;9083;49.156;8.982;2023-02-28T06:40:53;11.93;;;6.83;;
17915;SDS011;9083;49.156;8.982;2023-02-28T06:43:20;7.93;;;6.53;;
17915;SDS011;9083;49.156;8.982;2023-02-28T06:45:47;18.83;;;6.97;;
17915;SDS011;9083;49.156;8.982;2023-02-28T06:48:13;8.80;;;7.00;;
17915;SDS011;9083;49.156;8.982;2023-02-28T06:50:40;8.77;;;6.27;;
17915;SDS011;9083;49.156;8.982;2023-02-28T06:53:08;15.10;;;6.67;;
17915;SDS011;9083;49.156;8.982;2023-02-28T06:55:34;10.47;;;5.87;;
17915;SDS011;9083;49.156;8.982;2023-02-28T06:58:00;15.13;;;7.23;;
17915;SDS011;9083;49.156;8.982;2023-02-28T07:00:27;8.40;;;6.03;;
17915;SDS011;9083;49.156;8.982;2023-02-28T07:02:53;10.97;;;7.30;;
17915;SDS011;9083;49.156;8.982;2023-02-28T07:05:20;11.97;;;7.93;;
17915;SDS011;9083;49.156;8.982;2023-02-28T07:07:47;11.23;;;6.63;;
17915;SDS011;9083;49.156;8.982;2023-02-28T07:10:15;7.53;;;6.10;;
17915;SDS011;9083;49.156;8.982;2023-02-28T07:12:42;13.07;;;7.17;;
17915;SDS011;9083;49.156;8.982;2023-02-28T07:15:09;9.13;;;6.70;;
17915;SDS011;9083;49.156;8.982;2023-02-28T07:17:36;8.47;;;6.93;;
17915;SDS011;9083;49.156;8.982;2023-02-28T07:20:02;10.00;;;6.23;;
17915;SDS011;9083;49.156;8.982;2023-02-28T07:22:30;10.47;;;6.90;;
17915;SDS011;9083;49.156;8.982;2023-02-28T07:24:56;10.47;;;7.33;;
17915;SDS011;9083;49.156;8.982;2023-02-28T07:27:24;7.03;;;6.20;;
17915;SDS011;9083;49.156;8.982;2023-02-28T07:29:50;11.07;;;6.77;;
17915;SDS011;9083;49.156;8.982;2023-02-28T07:32:17;8.87;;;6.63;;
17915;SDS011;9083;49.156;8.982;2023-02-28T07:34:43;8.97;;;6.17;;
17915;SDS011;9083;49.156;8.982;2023-02-28T07:37:10;18.43;;;7.17;;
17915;SDS011;9083;49.156;8.982;2023-02-28T07:39:36;9.03;;;6.87;;
17915;SDS011;9083;49.156;8.982;2023-02-28T07:42:03;9.93;;;6.40;;
17915;SDS011;9083;49.156;8.982;2023-02-28T07:44:32;14.23;;;7.00;;
17915;SDS011;9083;49.156;8.982;2023-02-28T07:46:58;11.60;;;8.00;;
17915;SDS011;9083;49.156;8.982;2023-02-28T07:49:25;11.53;;;7.30;;
17915;SDS011;9083;49.156;8.982;2023-02-28T07:51:51;11.90;;;7.17;;
17915;SDS011;9083;49.156;8.982;2023-02-28T07:54:18;16.20;;;6.80;;
17915;SDS011;9083;49.156;8.982;2023-02-28T07:56:44;9.27;;;6.73;;
17915;SDS011;9083;49.156;8.982;2023-02-28T07:59:10;11.63;;;7.27;;
17915;SDS011;9083;49.156;8.982;2023-02-28T08:01:38;8.27;;;6.13;;
17915;SDS011;9083;49.156;8.982;2023-02-28T08:04:05;10.83;;;7.63;;
17915;SDS011;9083;49.156;8.982;2023-02-28T08:06:31;12.47;;;7.13;;
17915;SDS011;9083;49.156;8.982;2023-02-28T08:08:57;13.10;;;7.20;;
17915;SDS011;9083;49.156;8.982;2023-02-28T08:11:24;10.40;;;7.10;;
17915;SDS011;9083;49.156;8.982;2023-02-28T08:13:50;10.97;;;6.10;;
17915;SDS011;9083;49.156;8.982;2023-02-28T08:16:17;11.20;;;8.07;;
17915;SDS011;9083;49.156;8.982;2023-02-28T08:18:48;11.67;;;7.03;;
17915;SDS011;9083;49.156;8.982;2023-02-28T08:21:15;8.87;;;6.80;;
17915;SDS011;9083;49.156;8.982;2023-02-28T08:23:41;9.20;;;6.73;;
17915;SDS011;9083;49.156;8.982;2023-02-28T08:26:08;9.17;;;6.83;;
17915;SDS011;9083;49.156;8.982;2023-02-28T08:28:34;11.23;;;7.13;;
17915;SDS011;9083;49.156;8.982;2023-02-28T08:31:00;16.73;;;9.60;;
17915;SDS011;9083;49.156;8.982;2023-02-28T08:33:27;11.23;;;7.27;;
17915;SDS011;9083;49.156;8.982;2023-02-28T08:35:55;13.93;;;6.63;;
17915;SDS011;9083;49.156;8.982;2023-02-28T08:38:22;9.47;;;7.00;;
17915;SDS011;9083;49.156;8.982;2023-02-28T08:40:48;9.03;;;6.23;;
17915;SDS011;9083;49.156;8.982;2023-02-28T08:43:15;9.07;;;6.37;;
17915;SDS011;9083;49.156;8.982;2023-02-28T08:45:41;10.63;;;6.83;;
17915;SDS011;9083;49.156;8.982;2023-02-28T08:48:08;16.27;;;6.87;;
17915;SDS011;9083;49.156;8.982;2023-02-28T08:50:34;13.77;;;7.83;;
17915;SDS011;9083;49.156;8.982;2023-02-28T08:53:02;17.70;;;7.97;;
17915;SDS011;9083;49.156;8.982;2023-02-28T08:55:29;10.97;;;7.63;;
17915;SDS011;9083;49.156;8.982;2023-02-28T08:57:55;11.17;;;7.90;;
17915;SDS011;9083;49.156;8.982;2023-02-28T09:00:22;11.27;;;8.37;;
17915;SDS011;9083;49.156;8.982;2023-02-28T09:02:48;23.23;;;8.53;;
17915;SDS011;9083;49.156;8.982;2023-02-28T09:05:15;14.30;;;7.37;;
17915;SDS011;9083;49.156;8.982;2023-02-28T09:07:41;11.23;;;7.93;;
17915;SDS011;9083;49.156;8.982;2023-02-28T09:10:09;13.97;;;7.80;;
17915;SDS011;9083;49.156;8.982;2023-02-28T09:12:36;11.57;;;6.57;;
17915;SDS011;9083;49.156;8.982;2023-02-28T09:15:03;10.57;;;7.80;;
17915;SDS011;9083;49.156;8.982;2023-02-28T09:17:29;13.43;;;8.17;;
17915;SDS011;9083;49.156;8.982;2023-02-28T09:19:56;19.20;;;7.60;;
17915;SDS011;9083;49.156;8.982;2023-02-28T09:22:23;12.50;;;7.43;;
17915;SDS011;9083;49.156;8.982;2023-02-28T09:24:49;14.53;;;7.70;;
17915;SDS011;9083;49.156;8.982;2023-02-28T09:27:17;12.10;;;8.17;;
17915;SDS011;9083;49.156;8.982;2023-02-28T09:29:43;28.60;;;9.20;;
17915;SDS011;9083;49.156;8.982;2023-02-28T09:32:10;18.97;;;9.23;;
17915;SDS011;9083;49.156;8.982;2023-02-28T09:34:36;15.23;;;8.67;;
17915;SDS011;9083;49.156;8.982;2023-02-28T09:37:03;25.93;;;8.37;;
17915;SDS011;9083;49.156;8.982;2023-02-28T09:39:29;16.70;;;7.53;;
17915;SDS011;9083;49.156;8.982;2023-02-28T09:41:56;11.57;;;7.67;;
17915;SDS011;9083;49.156;8.982;2023-02-28T09:44:26;13.40;;;7.80;;
17915;SDS011;9083;49.156;8.982;2023-02-28T09:46:57;11.93;;;7.70;;
17915;SDS011;9083;49.156;8.982;2023-02-28T09:49:27;12.33;;;7.87;;
17915;SDS011;9083;49.156;8.982;2023-02-28T09:51:55;25.70;;;8.83;;
17915;SDS011;9083;49.156;8.982;2023-02-28T09:54:24;18.77;;;8.23;;
17915;SDS011;9083;49.156;8.982;2023-02-28T09:56:51;12.70;;;7.73;;
17915;SDS011;9083;49.156;8.982;2023-02-28T09:59:29;20.43;;;8.10;;
17915;SDS011;9083;49.156;8.982;2023-02-28T10:02:00;17.07;;;7.17;;
17915;SDS011;9083;49.156;8.982;2023-02-28T10:04:41;11.00;;;7.93;;
17915;SDS011;9083;49.156;8.982;2023-02-28T10:07:14;10.17;;;7.50;;
17915;SDS011;9083;49.156;8.982;2023-02-28T10:09:45;18.00;;;7.50;;
17915;SDS011;9083;49.156;8.982;2023-02-28T10:12:12;13.43;;;8.47;;
17915;SDS011;9083;49.156;8.982;2023-02-28T10:14:43;12.40;;;8.37;;
17915;SDS011;9083;49.156;8.982;2023-02-28T10:17:12;12.23;;;8.67;;
17915;SDS011;9083;49.156;8.982;2023-02-28T10:19:44;12.23;;;8.40;;
17915;SDS011;9083;49.156;8.982;2023-02-28T10:22:13;10.13;;;7.87;;
17915;SDS011;9083;49.156;8.982;2023-02-28T10:24:41;11.60;;;7.90;;
17915;SDS011;9083;49.156;8.982;2023-02-28T10:27:12;13.70;;;8.67;;
17915;SDS011;9083;49.156;8.982;2023-02-28T10:29:39;14.87;;;8.70;;
17915;SDS011;9083;49.156;8.982;2023-02-28T10:32:08;18.87;;;8.30;;
17915;SDS011;9083;49.156;8.982;2023-02-28T10:34:36;10.70;;;7.80;;
17915;SDS011;9083;49.156;8.982;2023-02-28T10:37:03;18.20;;;8.70;;
17915;SDS011;9083;49.156;8.982;2023-02-28T10:39:37;13.87;;;8.20;;
17915;SDS011;9083;49.156;8.982;2023-02-28T10:42:03;29.33;;;8.30;;
17915;SDS011;9083;49.156;8.982;2023-02-28T10:44:30;9.67;;;7.60;;
17915;SDS011;9083;49.156;8.982;2023-02-28T10:46:56;10.90;;;8.23;;
17915;SDS011;9083;49.156;8.982;2023-02-28T10:49:25;64.10;;;11.60;;
17915;SDS011;9083;49.156;8.982;2023-02-28T10:51:52;26.67;;;9.37;;
17915;SDS011;9083;49.156;8.982;2023-02-28T10:54:23;24.27;;;9.37;;
17915;SDS011;9083;49.156;8.982;2023-02-28T10:57:05;15.80;;;7.17;;
17915;SDS011;9083;49.156;8.982;2023-02-28T10:59:31;10.50;;;7.50;;
17915;SDS011;9083;49.156;8.982;2023-02-28T11:01:58;13.17;;;8.33;;
17915;SDS011;9083;49.156;8.982;2023-02-28T11:04:36;14.33;;;7.70;;
17915;SDS011;9083;49.156;8.982;2023-02-28T11:07:05;11.10;;;6.80;;
17915;SDS011;9083;49.156;8.982;2023-02-28T11:09:32;20.40;;;10.73;;
17915;SDS011;9083;49.156;8.982;2023-02-28T11:11:59;15.33;;;8.90;;
17915;SDS011;9083;49.156;8.982;2023-02-28T11:14:27;10.37;;;7.13;;
17915;SDS011;9083;49.156;8.982;2023-02-28T11:16:54;14.13;;;8.63;;
17915;SDS011;9083;49.156;8.982;2023-02-28T11:19:24;12.50;;;7.60;;
17915;SDS011;9083;49.156;8.982;2023-02-28T11:21:54;13.33;;;8.23;;
17915;SDS011;9083;49.156;8.982;2023-02-28T11:24:22;12.73;;;8.33;;
17915;SDS011;9083;49.156;8.982;2023-02-28T11:26:50;13.33;;;7.40;;
17915;SDS011;9083;49.156;8.982;2023-02-28T11:29:18;18.47;;;8.53;;
17915;SDS011;9083;49.156;8.982;2023-02-28T11:31:59;12.77;;;8.03;;
17915;SDS011;9083;49.156;8.982;2023-02-28T11:34:27;13.93;;;8.37;;
17915;SDS011;9083;49.156;8.982;2023-02-28T11:36:56;11.53;;;7.80;;
17915;SDS011;9083;49.156;8.982;2023-02-28T11:39:23;15.67;;;9.03;;
17915;SDS011;9083;49.156;8.982;2023-02-28T11:41:57;11.53;;;8.53;;
17915;SDS011;9083;49.156;8.982;2023-02-28T11:44:30;14.90;;;9.40;;
17915;SDS011;9083;49.156;8.982;2023-02-28T11:47:00;11.87;;;8.20;;
17915;SDS011;9083;49.156;8.982;2023-02-28T11:49:32;19.83;;;8.90;;
17915;SDS011;9083;49.156;8.982;2023-02-28T11:52:04;10.57;;;8.33;;
17915;SDS011;9083;49.156;8.982;2023-02-28T11:54:36;17.37;;;9.00;;
17915;SDS011;9083;49.156;8.982;2023-02-28T11:57:14;12.23;;;8.97;;
17915;SDS011;9083;49.156;8.982;2023-02-28T11:59:48;14.60;;;9.13;;
17915;SDS011;9083;49.156;8.982;2023-02-28T12:02:20;17.30;;;8.90;;
17915;SDS011;9083;49.156;8.982;2023-02-28T12:04:51;14.57;;;8.40;;
17915;SDS011;9083;49.156;8.982;2023-02-28T12:07:23;20.97;;;11.47;;
17915;SDS011;9083;49.156;8.982;2023-02-28T12:09:55;16.60;;;9.80;;
17915;SDS011;9083;49.156;8.982;2023-02-28T12:12:23;19.30;;;9.40;;
17915;SDS011;9083;49.156;8.982;2023-02-28T12:17:45;15.67;;;9.60;;
17915;SDS011;9083;49.156;8.982;2023-02-28T12:20:17;13.63;;;8.90;;
17915;SDS011;9083;49.156;8.982;2023-02-28T12:22:50;16.73;;;9.40;;
17915;SDS011;9083;49.156;8.982;2023-02-28T12:25:22;11.57;;;9.20;;
17915;SDS011;9083;49.156;8.982;2023-02-28T12:27:50;12.47;;;8.57;;
17915;SDS011;9083;49.156;8.982;2023-02-28T12:30:19;15.30;;;8.93;;
17915;SDS011;9083;49.156;8.982;2023-02-28T12:32:48;13.10;;;9.13;;
17915;SDS011;9083;49.156;8.982;2023-02-28T12:35:16;12.73;;;8.50;;
17915;SDS011;9083;49.156;8.982;2023-02-28T12:37:45;12.13;;;9.30;;
17915;SDS011;9083;49.156;8.982;2023-02-28T12:40:15;12.30;;;8.07;;
17915;SDS011;9083;49.156;8.982;2023-02-28T12:42:44;11.40;;;9.83;;
17915;SDS011;9083;49.156;8.982;2023-02-28T12:45:13;18.73;;;10.77;;
17915;SDS011;9083;49.156;8.982;2023-02-28T12:47:42;17.70;;;10.80;;
17915;SDS011;9083;49.156;8.982;2023-02-28T12:50:09;19.53;;;12.17;;
17915;SDS011;9083;49.156;8.982;2023-02-28T12:52:39;16.43;;;10.63;;
17915;SDS011;9083;49.156;8.982;2023-02-28T12:55:07;12.40;;;9.50;;
17915;SDS011;9083;49.156;8.982;2023-02-28T12:57:36;15.13;;;9.90;;
17915;SDS011;9083;49.156;8.982;2023-02-28T13:00:08;18.63;;;9.77;;
17915;SDS011;9083;49.156;8.982;2023-02-28T13:02:51;18.57;;;9.10;;
17915;SDS011;9083;49.156;8.982;2023-02-28T13:05:27;14.93;;;9.73;;
17915;SDS011;9083;49.156;8.982;2023-02-28T13:08:03;15.47;;;10.27;;
17915;SDS011;9083;49.156;8.982;2023-02-28T13:10:39;13.30;;;8.47;;
17915;SDS011;9083;49.156;8.982;2023-02-28T13:13:11;14.57;;;9.27;;
17915;SDS011;9083;49.156;8.982;2023-02-28T13:15:39;12.37;;;9.17;;
17915;SDS011;9083;49.156;8.982;2023-02-28T13:18:19;17.47;;;9.87;;
17915;SDS011;9083;49.156;8.982;2023-02-28T13:20:52;31.80;;;11.20;;
17915;SDS011;9083;49.156;8.982;2023-02-28T13:26:06;15.40;;;11.10;;
17915;SDS011;9083;49.156;8.982;2023-02-28T13:31:15;16.20;;;10.37;;
17915;SDS011;9083;49.156;8.982;2023-02-28T13:36:26;16.10;;;8.77;;
17915;SDS011;9083;49.156;8.982;2023-02-28T13:38:54;12.50;;;9.43;;
17915;SDS011;9083;49.156;8.982;2023-02-28T13:44:20;14.57;;;9.30;;
17915;SDS011;9083;49.156;8.982;2023-02-28T13:49:37;15.47;;;9.70;;
17915;SDS011;9083;49.156;8.982;2023-02-28T13:52:07;18.73;;;9.33;;
17915;SDS011;9083;49.156;8.982;2023-02-28T13:54:40;16.10;;;9.57;;
17915;SDS011;9083;49.156;8.982;2023-02-28T13:57:14;21.53;;;10.23;;
17915;SDS011;9083;49.156;8.982;2023-02-28T13:59:46;11.90;;;8.73;;
17915;SDS011;9083;49.156;8.982;2023-02-28T14:02:27;12.83;;;9.53;;
17915;SDS011;9083;49.156;8.982;2023-02-28T14:05:05;14.27;;;10.40;;
17915;SDS011;9083;49.156;8.982;2023-02-28T14:07:32;12.40;;;9.77;;
17915;SDS011;9083;49.156;8.982;2023-02-28T14:10:01;17.73;;;9.83;;
17915;SDS011;9083;49.156;8.982;2023-02-28T14:15:26;16.80;;;10.97;;
17915;SDS011;9083;49.156;8.982;2023-02-28T14:17:53;15.87;;;10.07;;
17915;SDS011;9083;49.156;8.982;2023-02-28T14:20:22;18.83;;;10.83;;
17915;SDS011;9083;49.156;8.982;2023-02-28T14:22:53;14.47;;;10.63;;
17915;SDS011;9083;49.156;8.982;2023-02-28T14:25:27;24.00;;;11.03;;
17915;SDS011;9083;49.156;8.982;2023-02-28T14:28:03;14.07;;;9.20;;
17915;SDS011;9083;49.156;8.982;2023-02-28T14:33:18;16.43;;;9.17;;
17915;SDS011;9083;49.156;8.982;2023-02-28T14:35:53;18.17;;;10.13;;
17915;SDS011;9083;49.156;8.982;2023-02-28T14:38:22;12.73;;;9.37;;
17915;SDS011;9083;49.156;8.982;2023-02-28T14:40:49;14.40;;;9.93;;
17915;SDS011;9083;49.156;8.982;2023-02-28T14:43:21;16.00;;;9.20;;
17915;SDS011;9083;49.156;8.982;2023-02-28T14:45:49;13.30;;;9.67;;
17915;SDS011;9083;49.156;8.982;2023-02-28T14:48:16;15.40;;;10.03;;
17915;SDS011;9083;49.156;8.982;2023-02-28T14:50:48;18.97;;;9.37;;
17915;SDS011;9083;49.156;8.982;2023-02-28T14:53:17;12.93;;;9.43;;
17915;SDS011;9083;49.156;8.982;2023-02-28T14:55:45;14.63;;;10.20;;
17915;SDS011;9083;49.156;8.982;2023-02-28T14:58:19;13.63;;;9.70;;
17915;SDS011;9083;49.156;8.982;2023-02-28T15:00:48;15.40;;;10.03;;
17915;SDS011;9083;49.156;8.982;2023-02-28T15:03:18;18.47;;;10.83;;
17915;SDS011;9083;49.156;8.982;2023-02-28T15:05:50;15.67;;;9.23;;
17915;SDS011;9083;49.156;8.982;2023-02-28T15:08:19;16.70;;;8.97;;
17915;SDS011;9083;49.156;8.982;2023-02-28T15:10:50;15.10;;;8.77;;
17915;SDS011;9083;49.156;8.982;2023-02-28T15:13:16;14.63;;;8.53;;
17915;SDS011;9083;49.156;8.982;2023-02-28T15:15:45;15.03;;;9.60;;
17915;SDS011;9083;49.156;8.982;2023-02-28T15:18:15;14.87;;;10.43;;
17915;SDS011;9083;49.156;8.982;2023-02-28T15:20:43;14.83;;;10.07;;
17915;SDS011;9083;49.156;8.982;2023-02-28T15:23:10;12.30;;;8.27;;
17915;SDS011;9083;49.156;8.982;2023-02-28T15:25:39;14.23;;;9.63;;
17915;SDS011;9083;49.156;8.982;2023-02-28T15:28:09;16.47;;;10.03;;